Time;durP1;ratioP1;P1;durP2;ratioP2;P2;SDS_P1;SDS_P2;PMS_P1;PMS_P2;Temp;Humidity;BMP_temperature;BMP_pressure;BME280_temperature;BME280_humidity;BME280_pressure;Samples;Min_cycle;Max_cycle;Signal;HPM_P1;HPM_P2
2023/04/30 00:01:58;;;;;;;16.90;15.90;;;;;;;;;;5013948;28;20465;-64
2023/04/30 00:04:23;;;;;;;16.80;15.80;;;;;;;;;;5014286;28;20117;-64
2023/04/30 00:06:49;;;;;;;16.35;15.45;;;;;;;;;;5014796;28;20049;-64
2023/04/30 00:09:14;;;;;;;16.55;15.48;;;;;;;;;;5012870;28;20028;-62
2023/04/30 00:11:40;;;;;;;16.00;15.10;;;;;;;;;;5006167;28;20016;-64
2023/04/30 00:14:05;;;;;;;16.88;15.77;;;;;;;;;;5012923;28;20093;-64
2023/04/30 00:16:30;;;;;;;15.18;14.38;;;;;;;;;;5012228;28;20033;-63
2023/04/30 00:18:56;;;;;;;15.80;14.98;;;;;;;;;;5014364;28;20022;-63
2023/04/30 00:21:21;;;;;;;16.02;15.10;;;;;;;;;;5003482;28;20026;-63
2023/04/30 00:23:46;;;;;;;16.05;15.05;;;;;;;;;;5013606;28;20026;-64
2023/04/30 00:26:12;;;;;;;16.73;15.63;;;;;;;;;;5013822;28;20022;-64
2023/04/30 00:28:37;;;;;;;15.10;14.30;;;;;;;;;;5006842;28;20030;-64
2023/04/30 00:31:05;;;;;;;15.20;14.40;;;;;;;;;;5012379;28;20014;-64
2023/04/30 00:33:31;;;;;;;15.95;14.98;;;;;;;;;;5014137;28;20021;-64
2023/04/30 00:35:56;;;;;;;16.30;15.30;;;;;;;;;;5009690;28;20489;-64
2023/04/30 00:38:21;;;;;;;17.00;15.90;;;;;;;;;;5012490;28;20029;-64
2023/04/30 00:40:47;;;;;;;15.82;14.93;;;;;;;;;;5011617;28;20029;-64
2023/04/30 00:43:12;;;;;;;16.52;15.52;;;;;;;;;;4995160;28;20018;-63
2023/04/30 00:45:37;;;;;;;17.05;15.95;;;;;;;;;;5008036;28;20022;-65
2023/04/30 00:48:03;;;;;;;16.80;15.80;;;;;;;;;;5007882;28;20022;-62
2023/04/30 00:50:28;;;;;;;17.73;16.63;;;;;;;;;;5007381;28;20042;-64
2023/04/30 00:52:54;;;;;;;16.77;15.85;;;;;;;;;;5007541;28;20025;-64
2023/04/30 00:55:19;;;;;;;16.30;15.40;;;;;;;;;;5012362;28;20357;-64
2023/04/30 00:57:45;;;;;;;16.67;15.73;;;;;;;;;;5008371;28;20051;-64
2023/04/30 01:00:12;;;;;;;16.77;15.73;;;;;;;;;;5010320;28;20067;-64
2023/04/30 01:02:37;;;;;;;16.70;15.70;;;;;;;;;;5013076;28;20061;-64
2023/04/30 01:05:03;;;;;;;16.75;15.75;;;;;;;;;;5012269;28;20026;-64
2023/04/30 01:07:30;;;;;;;16.27;15.38;;;;;;;;;;5013741;28;20413;-64
2023/04/30 01:09:55;;;;;;;17.00;16.00;;;;;;;;;;5009103;28;20743;-64
2023/04/30 01:12:27;;;;;;;17.13;16.10;;;;;;;;;;5013898;28;20025;-64
2023/04/30 01:15:05;;;;;;;16.85;15.82;;;;;;;;;;5012470;28;20018;-64
2023/04/30 01:17:45;;;;;;;16.50;15.50;;;;;;;;;;5013043;28;20029;-64
2023/04/30 01:20:11;;;;;;;16.80;15.80;;;;;;;;;;5007631;28;20531;-63
2023/04/30 01:22:55;;;;;;;15.90;15.02;;;;;;;;;;5004006;28;20028;-63
2023/04/30 01:25:32;;;;;;;17.20;16.10;;;;;;;;;;5002028;28;20142;-63
2023/04/30 01:28:16;;;;;;;15.95;15.00;;;;;;;;;;5013264;28;20041;-63
2023/04/30 01:30:43;;;;;;;;;;;;;;;;;;5013620;28;20022;-63
2023/04/30 01:33:09;;;;;;;16.48;15.45;;;;;;;;;;5012441;28;19905;-63
2023/04/30 01:35:37;;;;;;;16.67;15.57;;;;;;;;;;5012783;28;20370;-63
2023/04/30 01:38:10;;;;;;;16.73;15.63;;;;;;;;;;5010033;28;20014;-63
2023/04/30 01:40:44;;;;;;;15.95;15.05;;;;;;;;;;5012978;28;20437;-63
2023/04/30 01:43:22;;;;;;;17.60;16.38;;;;;;;;;;5011752;28;20017;-63
2023/04/30 01:45:50;;;;;;;15.63;14.73;;;;;;;;;;5012153;28;20025;-63
2023/04/30 01:48:21;;;;;;;15.65;14.77;;;;;;;;;;5012300;28;20013;-63
2023/04/30 01:51:05;;;;;;;15.88;14.98;;;;;;;;;;5003250;28;20065;-64
2023/04/30 01:53:37;;;;;;;17.10;15.90;;;;;;;;;;5022419;28;20026;-64
2023/04/30 01:56:04;;;;;;;17.58;16.27;;;;;;;;;;5009351;28;20309;-63
2023/04/30 01:58:30;;;;;;;17.10;16.00;;;;;;;;;;5009074;28;20014;-63
2023/04/30 02:00:56;;;;;;;16.63;15.52;;;;;;;;;;5010568;28;20049;-63
2023/04/30 02:03:21;;;;;;;16.80;15.70;;;;;;;;;;5006244;28;20053;-63
2023/04/30 02:05:47;;;;;;;17.52;16.30;;;;;;;;;;5010362;28;20409;-64
2023/04/30 02:08:12;;;;;;;16.35;15.35;;;;;;;;;;5007681;28;20020;-64
2023/04/30 02:10:38;;;;;;;16.92;15.93;;;;;;;;;;5007401;28;20029;-64
2023/04/30 02:13:03;;;;;;;16.00;15.10;;;;;;;;;;5010441;28;20018;-64
2023/04/30 02:15:28;;;;;;;16.98;15.98;;;;;;;;;;5011889;28;20021;-63
2023/04/30 02:17:54;;;;;;;16.58;15.57;;;;;;;;;;5004210;28;20061;-63
2023/04/30 02:20:19;;;;;;;16.45;15.50;;;;;;;;;;5003679;28;20026;-63
2023/04/30 02:22:44;;;;;;;16.65;15.65;;;;;;;;;;5012122;28;20022;-64
2023/04/30 02:25:11;;;;;;;17.00;16.00;;;;;;;;;;5006701;28;20072;-64
2023/04/30 02:27:37;;;;;;;16.92;16.00;;;;;;;;;;5012026;28;20034;-64
2023/04/30 02:30:03;;;;;;;17.25;16.17;;;;;;;;;;5008806;28;20033;-64
2023/04/30 02:32:28;;;;;;;18.00;16.90;;;;;;;;;;5007555;28;20015;-64
2023/04/30 02:34:53;;;;;;;16.92;15.95;;;;;;;;;;5007492;28;20392;-64
2023/04/30 02:37:19;;;;;;;18.10;17.00;;;;;;;;;;5010315;28;20045;-64
2023/04/30 02:39:44;;;;;;;17.15;16.15;;;;;;;;;;5011725;28;20034;-63
2023/04/30 02:42:10;;;;;;;18.08;16.88;;;;;;;;;;5010354;28;20014;-64
2023/04/30 02:44:35;;;;;;;17.45;16.35;;;;;;;;;;5011246;28;20465;-64
2023/04/30 02:47:01;;;;;;;17.30;16.30;;;;;;;;;;5011859;28;20496;-63
2023/04/30 02:49:26;;;;;;;16.70;15.80;;;;;;;;;;5011457;28;20488;-63
2023/04/30 02:51:52;;;;;;;17.60;16.60;;;;;;;;;;5006656;28;20014;-64
2023/04/30 02:54:17;;;;;;;18.75;17.48;;;;;;;;;;5006783;28;20513;-65
2023/04/30 02:56:44;;;;;;;18.13;16.92;;;;;;;;;;5005754;28;20130;-63
2023/04/30 02:59:09;;;;;;;17.90;16.80;;;;;;;;;;5006396;28;20045;-63
2023/04/30 03:01:35;;;;;;;16.98;16.02;;;;;;;;;;5006295;28;20481;-63
2023/04/30 03:04:02;;;;;;;16.60;15.70;;;;;;;;;;5010507;28;20036;-64
2023/04/30 03:06:28;;;;;;;17.88;16.67;;;;;;;;;;4996046;28;20031;-64
2023/04/30 03:08:53;;;;;;;17.65;16.55;;;;;;;;;;5006872;28;20033;-64
2023/04/30 03:11:18;;;;;;;17.15;16.15;;;;;;;;;;5008925;28;20045;-64
2023/04/30 03:13:44;;;;;;;16.83;15.85;;;;;;;;;;5011436;28;20018;-64
2023/04/30 03:16:10;;;;;;;17.13;16.13;;;;;;;;;;5010848;28;20505;-64
2023/04/30 03:18:35;;;;;;;16.35;15.45;;;;;;;;;;5008505;28;20014;-64
2023/04/30 03:21:00;;;;;;;17.38;16.25;;;;;;;;;;5009664;28;20057;-64
2023/04/30 03:23:26;;;;;;;17.00;15.90;;;;;;;;;;5010944;28;20516;-63
2023/04/30 03:25:52;;;;;;;15.50;14.60;;;;;;;;;;5010858;28;20045;-64
2023/04/30 03:28:17;;;;;;;15.13;14.23;;;;;;;;;;5010639;28;20394;-64
2023/04/30 03:30:42;;;;;;;14.75;13.85;;;;;;;;;;5011152;28;20021;-64
2023/04/30 03:33:08;;;;;;;14.90;13.95;;;;;;;;;;5010539;28;20025;-64
2023/04/30 03:35:33;;;;;;;13.70;12.90;;;;;;;;;;5007392;28;20029;-64
2023/04/30 03:38:01;;;;;;;13.15;12.45;;;;;;;;;;5010003;28;20022;-64
2023/04/30 03:40:27;;;;;;;13.85;13.05;;;;;;;;;;5010966;28;20072;-64
2023/04/30 03:42:52;;;;;;;12.43;11.82;;;;;;;;;;5010797;28;20030;-64
2023/04/30 03:45:18;;;;;;;13.13;12.43;;;;;;;;;;5009562;28;20026;-64
2023/04/30 03:47:43;;;;;;;12.68;12.07;;;;;;;;;;5010872;28;20113;-64
2023/04/30 03:50:09;;;;;;;12.55;11.95;;;;;;;;;;5004389;28;20083;-65
2023/04/30 03:52:35;;;;;;;13.20;12.50;;;;;;;;;;5005008;28;20373;-63
2023/04/30 03:55:01;;;;;;;12.50;11.90;;;;;;;;;;5010073;28;20068;-63
2023/04/30 03:57:26;;;;;;;12.73;12.13;;;;;;;;;;5001811;28;20018;-64
2023/04/30 03:59:51;;;;;;;12.85;12.25;;;;;;;;;;5010493;28;20028;-64
2023/04/30 04:02:17;;;;;;;12.98;12.38;;;;;;;;;;5008218;28;20045;-64
2023/04/30 04:04:42;;;;;;;12.90;12.30;;;;;;;;;;5008295;28;20608;-64
2023/04/30 04:07:10;;;;;;;13.23;12.57;;;;;;;;;;4998592;28;20021;-63
2023/04/30 04:09:35;;;;;;;12.55;11.95;;;;;;;;;;5014607;28;20068;-64
2023/04/30 04:12:01;;;;;;;13.05;12.45;;;;;;;;;;5012359;28;20034;-64
2023/04/30 04:14:27;;;;;;;13.27;12.65;;;;;;;;;;5013381;28;20026;-63
2023/04/30 04:16:52;;;;;;;12.77;12.18;;;;;;;;;;5009605;28;20073;-64
2023/04/30 04:19:17;;;;;;;12.70;12.10;;;;;;;;;;5013865;28;20030;-64
2023/04/30 04:21:43;;;;;;;12.73;12.13;;;;;;;;;;5013992;28;20030;-63
2023/04/30 04:24:08;;;;;;;12.40;11.80;;;;;;;;;;5013850;28;20021;-64
2023/04/30 04:26:36;;;;;;;13.20;12.60;;;;;;;;;;5013029;28;20022;-63
2023/04/30 04:29:02;;;;;;;12.70;12.10;;;;;;;;;;5010418;28;20025;-63
2023/04/30 04:31:28;;;;;;;12.80;12.20;;;;;;;;;;5014582;28;20071;-63
2023/04/30 04:33:57;;;;;;;12.93;12.32;;;;;;;;;;5011504;28;20021;-65
2023/04/30 04:36:23;;;;;;;13.05;12.45;;;;;;;;;;5012646;28;20498;-64
2023/04/30 04:38:48;;;;;;;13.38;12.77;;;;;;;;;;5015265;28;20033;-64
2023/04/30 04:41:14;;;;;;;12.70;12.10;;;;;;;;;;5014088;28;20484;-64
2023/04/30 04:43:39;;;;;;;12.48;11.88;;;;;;;;;;5013232;28;20033;-64
2023/04/30 04:46:05;;;;;;;12.80;12.20;;;;;;;;;;5013449;28;20037;-63
2023/04/30 04:48:30;;;;;;;12.60;12.00;;;;;;;;;;5006428;28;20084;-64
2023/04/30 04:50:55;;;;;;;12.77;12.18;;;;;;;;;;5002733;28;20062;-64
2023/04/30 04:53:21;;;;;;;12.18;11.65;;;;;;;;;;5013483;28;20013;-64
2023/04/30 04:55:46;;;;;;;12.43;11.82;;;;;;;;;;5013627;28;20034;-63
2023/04/30 04:58:11;;;;;;;12.20;11.70;;;;;;;;;;5013631;28;20485;-63
2023/04/30 05:00:37;;;;;;;11.93;11.43;;;;;;;;;;5013261;28;20018;-64
2023/04/30 05:03:03;;;;;;;12.35;11.77;;;;;;;;;;5009034;28;20494;-65
2023/04/30 05:05:28;;;;;;;12.10;11.60;;;;;;;;;;5013400;28;20017;-64
2023/04/30 05:07:54;;;;;;;12.00;11.50;;;;;;;;;;5012685;28;20017;-64
2023/04/30 05:10:19;;;;;;;11.88;11.38;;;;;;;;;;5013454;28;20026;-64
2023/04/30 05:12:44;;;;;;;12.20;11.70;;;;;;;;;;5002291;28;20021;-64
2023/04/30 05:15:10;;;;;;;12.38;11.80;;;;;;;;;;5012642;28;20149;-64
2023/04/30 05:17:35;;;;;;;12.40;11.80;;;;;;;;;;5010805;28;20050;-65
2023/04/30 05:20:01;;;;;;;11.90;11.40;;;;;;;;;;5012213;28;20115;-64
2023/04/30 05:22:26;;;;;;;12.00;11.50;;;;;;;;;;5012085;28;20248;-64
2023/04/30 05:24:52;;;;;;;11.80;11.30;;;;;;;;;;5013055;28;20026;-65
2023/04/30 05:27:17;;;;;;;12.18;11.68;;;;;;;;;;5012323;28;20076;-64
2023/04/30 05:29:42;;;;;;;12.65;12.05;;;;;;;;;;5007096;28;20019;-65
2023/04/30 05:32:07;;;;;;;12.70;12.10;;;;;;;;;;5006594;28;20025;-64
2023/04/30 05:34:33;;;;;;;12.10;11.60;;;;;;;;;;5012771;28;20032;-64
2023/04/30 05:36:58;;;;;;;12.48;11.88;;;;;;;;;;5010824;28;20096;-64
2023/04/30 05:39:23;;;;;;;12.43;11.82;;;;;;;;;;5008872;28;20022;-64
2023/04/30 05:41:49;;;;;;;12.13;11.63;;;;;;;;;;5012290;28;20022;-64
2023/04/30 05:44:14;;;;;;;12.00;11.50;;;;;;;;;;5012622;28;20054;-64
2023/04/30 05:46:40;;;;;;;12.27;11.77;;;;;;;;;;5004627;28;20014;-64
2023/04/30 05:49:05;;;;;;;12.25;11.73;;;;;;;;;;5012354;28;20018;-64
2023/04/30 05:51:31;;;;;;;12.50;11.90;;;;;;;;;;5004482;28;20073;-63
2023/04/30 05:53:56;;;;;;;12.45;11.85;;;;;;;;;;5002475;28;20331;-65
2023/04/30 05:56:23;;;;;;;12.73;12.13;;;;;;;;;;5010355;28;20040;-65
2023/04/30 05:58:50;;;;;;;12.60;12.00;;;;;;;;;;5013408;28;20482;-65
2023/04/30 06:01:16;;;;;;;12.50;11.90;;;;;;;;;;5003732;28;20060;-64
2023/04/30 06:03:41;;;;;;;12.60;12.00;;;;;;;;;;5005679;28;20077;-65
2023/04/30 06:06:08;;;;;;;13.52;12.93;;;;;;;;;;5009626;28;20049;-66
2023/04/30 06:08:33;;;;;;;12.98;12.38;;;;;;;;;;5010608;28;20565;-63
2023/04/30 06:10:59;;;;;;;12.50;11.90;;;;;;;;;;5011075;28;20014;-65
2023/04/30 06:13:24;;;;;;;12.23;11.70;;;;;;;;;;4999897;28;20028;-64
2023/04/30 06:15:50;;;;;;;12.15;11.65;;;;;;;;;;5010361;28;20018;-64
2023/04/30 06:18:15;;;;;;;12.43;11.82;;;;;;;;;;5010961;28;20014;-64
2023/04/30 06:20:40;;;;;;;12.43;11.82;;;;;;;;;;5011461;28;20017;-66
2023/04/30 06:23:07;;;;;;;12.13;11.63;;;;;;;;;;5011831;28;20021;-65
2023/04/30 06:25:32;;;;;;;12.60;12.00;;;;;;;;;;5010176;28;20017;-64
2023/04/30 06:27:58;;;;;;;13.10;12.50;;;;;;;;;;5003341;28;20015;-66
2023/04/30 06:30:23;;;;;;;12.60;12.00;;;;;;;;;;5010254;28;20271;-65
2023/04/30 06:32:48;;;;;;;12.77;12.17;;;;;;;;;;5008561;28;20243;-65
2023/04/30 06:35:14;;;;;;;12.40;11.83;;;;;;;;;;5010854;28;20243;-65
2023/04/30 06:37:39;;;;;;;12.07;11.57;;;;;;;;;;5011560;28;20854;-65
2023/04/30 06:40:05;;;;;;;12.20;11.70;;;;;;;;;;5008028;28;20037;-64
2023/04/30 06:42:33;;;;;;;12.38;11.80;;;;;;;;;;5010793;28;20163;-64
2023/04/30 06:45:00;;;;;;;11.93;11.43;;;;;;;;;;5010411;28;20018;-64
2023/04/30 06:47:25;;;;;;;12.07;11.57;;;;;;;;;;5010391;28;20053;-65
2023/04/30 06:49:50;;;;;;;11.93;11.43;;;;;;;;;;5000605;28;20054;-64
2023/04/30 06:52:16;;;;;;;12.10;11.60;;;;;;;;;;5007627;28;20033;-64
2023/04/30 06:54:42;;;;;;;12.10;11.60;;;;;;;;;;5002131;28;20341;-64
2023/04/30 06:57:08;;;;;;;12.23;11.73;;;;;;;;;;5005765;28;20113;-64
2023/04/30 06:59:33;;;;;;;12.30;11.80;;;;;;;;;;5010885;28;20477;-65
2023/04/30 07:01:58;;;;;;;12.82;12.23;;;;;;;;;;5010459;28;20034;-64
2023/04/30 07:04:24;;;;;;;12.93;12.33;;;;;;;;;;5004886;28;20048;-64
2023/04/30 07:06:49;;;;;;;12.70;12.10;;;;;;;;;;5011548;28;20259;-64
2023/04/30 07:09:15;;;;;;;12.98;12.38;;;;;;;;;;5001938;28;20047;-66
2023/04/30 07:11:41;;;;;;;12.90;12.30;;;;;;;;;;5011609;28;20367;-64
2023/04/30 07:14:07;;;;;;;12.52;11.93;;;;;;;;;;5007445;28;20018;-65
2023/04/30 07:16:32;;;;;;;12.80;12.20;;;;;;;;;;5010967;28;20026;-64
2023/04/30 07:18:58;;;;;;;13.25;12.65;;;;;;;;;;5008024;28;20485;-64
2023/04/30 07:21:24;;;;;;;13.02;12.43;;;;;;;;;;5010941;28;20025;-64
2023/04/30 07:23:50;;;;;;;13.30;12.70;;;;;;;;;;5010970;28;20030;-63
2023/04/30 07:26:15;;;;;;;12.38;11.82;;;;;;;;;;5010937;28;20033;-64
2023/04/30 07:28:41;;;;;;;12.73;12.13;;;;;;;;;;5010610;28;20034;-65
2023/04/30 07:31:06;;;;;;;12.38;11.82;;;;;;;;;;5007255;28;20021;-65
2023/04/30 07:33:32;;;;;;;12.97;12.37;;;;;;;;;;5010460;28;20378;-64
2023/04/30 07:35:57;;;;;;;12.90;12.30;;;;;;;;;;5010011;28;20247;-64
2023/04/30 07:38:23;;;;;;;12.90;12.30;;;;;;;;;;5010795;28;20048;-64
2023/04/30 07:40:48;;;;;;;12.85;12.25;;;;;;;;;;5011254;28;20022;-64
2023/04/30 07:43:13;;;;;;;12.77;12.18;;;;;;;;;;5014364;28;20148;-64
2023/04/30 07:45:39;;;;;;;13.00;12.40;;;;;;;;;;5006401;28;20489;-64
2023/04/30 07:48:04;;;;;;;12.90;12.30;;;;;;;;;;5012560;28;20338;-64
2023/04/30 07:50:32;;;;;;;12.65;12.05;;;;;;;;;;5006117;28;20272;-64
2023/04/30 07:52:58;;;;;;;13.05;12.45;;;;;;;;;;5010018;28;20018;-66
2023/04/30 07:55:23;;;;;;;12.80;12.20;;;;;;;;;;5014646;28;20026;-66
2023/04/30 07:57:48;;;;;;;13.23;12.63;;;;;;;;;;5013978;28;20033;-65
2023/04/30 08:00:15;;;;;;;13.37;12.77;;;;;;;;;;5013747;28;20343;-65
2023/04/30 08:02:42;;;;;;;13.23;12.63;;;;;;;;;;5007005;28;20287;-64
2023/04/30 08:05:08;;;;;;;13.95;13.25;;;;;;;;;;5014141;28;20071;-64
2023/04/30 08:07:33;;;;;;;13.88;13.18;;;;;;;;;;5002901;28;20029;-65
2023/04/30 08:09:58;;;;;;;14.80;14.00;;;;;;;;;;5005884;28;20132;-64
2023/04/30 08:12:24;;;;;;;15.02;14.23;;;;;;;;;;5009093;28;20029;-64
2023/04/30 08:14:49;;;;;;;14.38;13.57;;;;;;;;;;5014011;28;20021;-64
2023/04/30 08:17:15;;;;;;;14.32;13.60;;;;;;;;;;5003198;28;20018;-64
2023/04/30 08:19:40;;;;;;;13.80;13.10;;;;;;;;;;5012954;28;20413;-65
2023/04/30 08:22:05;;;;;;;13.90;13.20;;;;;;;;;;5009024;28;20073;-64
2023/04/30 08:24:30;;;;;;;13.82;13.13;;;;;;;;;;5014012;28;20072;-64
2023/04/30 08:26:56;;;;;;;13.55;12.85;;;;;;;;;;5005467;28;20025;-64
2023/04/30 08:29:21;;;;;;;13.50;12.80;;;;;;;;;;5013965;28;20025;-64
2023/04/30 08:31:46;;;;;;;14.00;13.27;;;;;;;;;;5011809;28;20029;-64
2023/04/30 08:34:12;;;;;;;14.73;13.93;;;;;;;;;;5008854;28;20018;-64
2023/04/30 08:36:37;;;;;;;14.23;13.50;;;;;;;;;;5009614;28;20439;-64
2023/04/30 08:39:02;;;;;;;13.50;12.80;;;;;;;;;;5013830;28;20022;-64
2023/04/30 08:41:30;;;;;;;13.73;13.02;;;;;;;;;;5015636;28;20013;-64
2023/04/30 08:43:59;;;;;;;13.40;12.70;;;;;;;;;;5013204;28;20080;-64
2023/04/30 08:46:25;;;;;;;13.38;12.68;;;;;;;;;;5013736;28;20521;-64
2023/04/30 08:48:51;;;;;;;13.88;13.18;;;;;;;;;;5013413;28;20025;-63
2023/04/30 08:51:16;;;;;;;13.73;13.02;;;;;;;;;;5000999;28;20026;-65
2023/04/30 08:53:43;;;;;;;14.65;13.85;;;;;;;;;;5012377;28;20108;-64
2023/04/30 08:56:09;;;;;;;13.23;12.52;;;;;;;;;;5009757;28;20391;-65
2023/04/30 08:58:34;;;;;;;13.40;12.70;;;;;;;;;;5006378;28;20026;-63
2023/04/30 09:01:00;;;;;;;13.48;12.77;;;;;;;;;;5001579;28;20057;-64
2023/04/30 09:03:27;;;;;;;13.20;12.50;;;;;;;;;;5012258;28;20046;-65
2023/04/30 09:05:52;;;;;;;14.02;13.32;;;;;;;;;;5011529;28;20021;-64
2023/04/30 09:08:18;;;;;;;13.25;12.60;;;;;;;;;;5013227;28;20520;-65
2023/04/30 09:10:43;;;;;;;12.60;12.00;;;;;;;;;;5013181;28;20403;-63
2023/04/30 09:13:10;;;;;;;12.70;12.10;;;;;;;;;;5011168;28;20014;-65
2023/04/30 09:15:37;;;;;;;13.35;12.65;;;;;;;;;;5013138;28;20026;-65
2023/04/30 09:18:09;;;;;;;12.45;11.85;;;;;;;;;;5005112;28;20084;-64
2023/04/30 09:20:34;;;;;;;12.80;12.20;;;;;;;;;;5010264;28;20496;-64
2023/04/30 09:23:09;;;;;;;12.85;12.25;;;;;;;;;;5012882;28;20081;-66
2023/04/30 09:25:39;;;;;;;12.80;12.20;;;;;;;;;;5012390;28;20025;-65
2023/04/30 09:28:11;;;;;;;12.70;12.10;;;;;;;;;;5008623;28;20101;-64
2023/04/30 09:30:37;;;;;;;12.82;12.23;;;;;;;;;;5011767;28;20110;-64
2023/04/30 09:33:02;;;;;;;13.35;12.65;;;;;;;;;;5002839;28;20098;-63
2023/04/30 09:35:29;;;;;;;13.85;13.15;;;;;;;;;;5011188;28;20038;-64
2023/04/30 09:37:54;;;;;;;13.50;12.80;;;;;;;;;;5010701;28;20076;-64
2023/04/30 09:40:31;;;;;;;13.27;12.57;;;;;;;;;;5011966;28;20026;-63
2023/04/30 09:42:58;;;;;;;12.45;11.85;;;;;;;;;;5012735;28;20026;-64
2023/04/30 09:45:23;;;;;;;12.52;11.93;;;;;;;;;;5012511;28;20477;-64
2023/04/30 09:47:51;;;;;;;13.40;12.70;;;;;;;;;;5011458;28;20077;-64
2023/04/30 09:50:17;;;;;;;12.45;11.85;;;;;;;;;;5001918;28;20415;-63
2023/04/30 09:52:47;;;;;;;13.27;12.57;;;;;;;;;;5007615;28;20018;-67
2023/04/30 09:55:13;;;;;;;12.98;12.30;;;;;;;;;;5010799;28;20068;-64
2023/04/30 09:57:38;;;;;;;13.60;12.90;;;;;;;;;;5005786;28;20022;-65
2023/04/30 10:00:04;;;;;;;14.15;13.35;;;;;;;;;;5003061;28;20041;-64
2023/04/30 10:02:30;;;;;;;13.48;12.77;;;;;;;;;;5007659;28;20115;-64
2023/04/30 10:04:57;;;;;;;12.77;12.18;;;;;;;;;;5010511;28;20066;-64
2023/04/30 10:07:23;;;;;;;13.20;12.50;;;;;;;;;;5009798;28;20099;-64
2023/04/30 10:10:08;;;;;;;12.48;11.88;;;;;;;;;;5006096;28;20018;-65
2023/04/30 10:12:37;;;;;;;13.13;12.43;;;;;;;;;;5011567;28;20025;-63
2023/04/30 10:15:15;;;;;;;13.43;12.73;;;;;;;;;;5011806;28;20059;-64
2023/04/30 10:17:43;;;;;;;12.50;11.90;;;;;;;;;;5005634;28;20042;-63
2023/04/30 10:20:08;;;;;;;13.65;12.95;;;;;;;;;;5006672;28;20124;-65
2023/04/30 10:22:34;;;;;;;12.90;12.27;;;;;;;;;;5011791;28;20527;-64
2023/04/30 10:25:00;;;;;;;14.05;13.25;;;;;;;;;;5010874;28;20477;-65
2023/04/30 10:27:25;;;;;;;13.98;13.23;;;;;;;;;;5010924;28;20032;-64
2023/04/30 10:29:51;;;;;;;13.68;12.98;;;;;;;;;;5010626;28;20018;-63
2023/04/30 10:32:17;;;;;;;12.50;11.90;;;;;;;;;;5009850;28;20025;-63
2023/04/30 10:34:44;;;;;;;13.38;12.68;;;;;;;;;;5006359;28;20492;-64
2023/04/30 10:37:17;;;;;;;14.15;13.38;;;;;;;;;;5011102;28;20056;-63
2023/04/30 10:39:42;;;;;;;12.60;12.00;;;;;;;;;;5011623;28;20026;-64
2023/04/30 10:42:09;;;;;;;13.90;13.15;;;;;;;;;;5003516;28;20026;-65
2023/04/30 10:44:38;;;;;;;12.75;12.15;;;;;;;;;;5007264;28;20076;-65
2023/04/30 10:47:04;;;;;;;13.30;12.63;;;;;;;;;;5010510;28;20022;-64
2023/04/30 10:49:29;;;;;;;13.25;12.55;;;;;;;;;;5007597;28;20061;-64
2023/04/30 10:51:58;;;;;;;12.77;12.18;;;;;;;;;;5005459;28;20054;-64
2023/04/30 10:54:27;;;;;;;12.77;12.18;;;;;;;;;;4999918;28;20046;-64
2023/04/30 10:56:55;;;;;;;13.18;12.48;;;;;;;;;;5006149;28;20019;-64
2023/04/30 10:59:21;;;;;;;13.43;12.73;;;;;;;;;;5006937;28;20021;-64
2023/04/30 11:02:12;;;;;;;12.70;12.10;;;;;;;;;;5010839;28;20052;-64
2023/04/30 11:04:56;;;;;;;12.25;11.65;;;;;;;;;;5010907;28;20022;-64
2023/04/30 11:07:24;;;;;;;12.90;12.27;;;;;;;;;;5010946;28;20077;-63
2023/04/30 11:09:50;;;;;;;12.55;11.95;;;;;;;;;;5006934;28;20299;-65
2023/04/30 11:12:27;;;;;;;13.30;12.60;;;;;;;;;;5012589;28;20044;-63
2023/04/30 11:14:57;;;;;;;12.48;11.88;;;;;;;;;;5002126;28;20022;-63
2023/04/30 11:17:23;;;;;;;12.43;11.82;;;;;;;;;;5003564;28;20040;-64
2023/04/30 11:19:49;;;;;;;13.45;12.75;;;;;;;;;;5014274;28;20113;-63
2023/04/30 11:22:15;;;;;;;12.55;11.95;;;;;;;;;;5015427;28;20168;-64
2023/04/30 11:24:53;;;;;;;12.43;11.82;;;;;;;;;;5012426;28;20037;-63
2023/04/30 11:27:28;;;;;;;12.68;12.07;;;;;;;;;;5015139;28;20036;-64
2023/04/30 11:29:54;;;;;;;12.63;12.02;;;;;;;;;;5013318;28;20030;-64
2023/04/30 11:32:20;;;;;;;12.60;12.00;;;;;;;;;;5014833;28;20045;-64
2023/04/30 11:34:46;;;;;;;12.70;12.10;;;;;;;;;;5014180;28;20473;-64
2023/04/30 11:37:15;;;;;;;14.35;13.55;;;;;;;;;;5012642;28;20021;-63
2023/04/30 11:39:41;;;;;;;13.75;13.05;;;;;;;;;;5017854;28;20032;-63
2023/04/30 11:42:07;;;;;;;13.23;12.52;;;;;;;;;;5009520;28;20029;-64
2023/04/30 11:44:32;;;;;;;13.60;12.90;;;;;;;;;;5014333;28;20125;-64
2023/04/30 11:46:58;;;;;;;12.40;11.80;;;;;;;;;;5013581;28;20141;-64
2023/04/30 11:49:23;;;;;;;13.18;12.48;;;;;;;;;;5014056;28;20366;-64
2023/04/30 11:51:49;;;;;;;12.57;11.98;;;;;;;;;;5014136;28;20024;-65
2023/04/30 11:54:15;;;;;;;13.00;12.30;;;;;;;;;;5004656;28;20543;-65
2023/04/30 11:56:45;;;;;;;13.43;12.73;;;;;;;;;;5014445;28;20044;-64
2023/04/30 11:59:12;;;;;;;12.60;12.00;;;;;;;;;;5014076;28;20044;-64
2023/04/30 12:01:37;;;;;;;12.40;11.80;;;;;;;;;;5009982;28;20487;-65
2023/04/30 12:04:03;;;;;;;14.50;13.70;;;;;;;;;;5009398;28;20045;-64
2023/04/30 12:06:29;;;;;;;12.73;12.13;;;;;;;;;;5010511;28;20104;-64
2023/04/30 12:08:56;;;;;;;13.05;12.43;;;;;;;;;;5013150;28;20397;-64
2023/04/30 12:11:26;;;;;;;12.70;12.10;;;;;;;;;;5003748;28;20097;-64
2023/04/30 12:13:55;;;;;;;12.80;12.20;;;;;;;;;;5010443;28;20101;-64
2023/04/30 12:16:20;;;;;;;12.45;11.85;;;;;;;;;;5013007;28;20022;-64
2023/04/30 12:18:46;;;;;;;12.80;12.20;;;;;;;;;;5011528;28;20022;-63
2023/04/30 12:21:12;;;;;;;12.82;12.23;;;;;;;;;;5013783;28;20018;-64
2023/04/30 12:23:37;;;;;;;13.18;12.48;;;;;;;;;;5012884;28;20022;-64
2023/04/30 12:26:02;;;;;;;13.13;12.45;;;;;;;;;;5013638;28;20040;-64
2023/04/30 12:28:28;;;;;;;13.57;12.88;;;;;;;;;;5006982;28;20017;-64
2023/04/30 12:30:53;;;;;;;12.73;12.13;;;;;;;;;;5012320;28;20528;-64
2023/04/30 12:33:18;;;;;;;12.70;12.10;;;;;;;;;;5013920;28;20589;-64
2023/04/30 12:35:44;;;;;;;12.68;12.07;;;;;;;;;;5010100;28;20022;-64
2023/04/30 12:38:09;;;;;;;13.50;12.80;;;;;;;;;;5010586;28;20013;-64
2023/04/30 12:40:35;;;;;;;12.45;11.85;;;;;;;;;;5008636;28;20408;-65
2023/04/30 12:43:01;;;;;;;13.52;12.82;;;;;;;;;;5013648;28;20018;-64
2023/04/30 12:45:46;;;;;;;13.15;12.45;;;;;;;;;;5005238;28;20478;-65
2023/04/30 12:48:12;;;;;;;12.65;12.05;;;;;;;;;;5007467;28;20022;-64
2023/04/30 12:50:38;;;;;;;12.48;11.88;;;;;;;;;;5004027;28;20033;-65
2023/04/30 12:53:04;;;;;;;13.23;12.52;;;;;;;;;;5000237;28;20014;-65
2023/04/30 12:55:30;;;;;;;13.48;12.77;;;;;;;;;;5011580;28;20148;-64
2023/04/30 12:58:07;;;;;;;13.38;12.68;;;;;;;;;;5008830;28;20154;-64
2023/04/30 13:00:49;;;;;;;12.82;12.23;;;;;;;;;;5016232;28;20052;-64
2023/04/30 13:03:16;;;;;;;14.18;13.38;;;;;;;;;;5011804;28;20046;-64
2023/04/30 13:05:45;;;;;;;14.18;13.35;;;;;;;;;;5006343;28;20104;-63
2023/04/30 13:08:11;;;;;;;13.18;12.48;;;;;;;;;;5008857;28;20427;-63
2023/04/30 13:10:37;;;;;;;14.20;13.40;;;;;;;;;;5010438;28;20080;-64
2023/04/30 13:13:02;;;;;;;12.88;12.25;;;;;;;;;;5009062;28;20021;-63
2023/04/30 13:15:27;;;;;;;12.77;12.18;;;;;;;;;;5013979;28;20018;-64
2023/04/30 13:17:53;;;;;;;13.23;12.52;;;;;;;;;;5009976;28;20087;-64
2023/04/30 13:20:18;;;;;;;14.25;13.45;;;;;;;;;;5010553;28;20389;-64
2023/04/30 13:22:43;;;;;;;12.10;11.50;;;;;;;;;;5007835;28;20033;-63
2023/04/30 13:25:09;;;;;;;13.35;12.65;;;;;;;;;;5008153;28;20469;-63
2023/04/30 13:27:34;;;;;;;13.18;12.48;;;;;;;;;;5020043;28;20030;-65
2023/04/30 13:30:01;;;;;;;13.27;12.57;;;;;;;;;;5017198;28;20105;-63
2023/04/30 13:32:26;;;;;;;12.70;12.10;;;;;;;;;;5010584;28;20520;-64
2023/04/30 13:34:53;;;;;;;13.98;13.20;;;;;;;;;;5011587;28;20113;-65
2023/04/30 13:37:19;;;;;;;13.32;12.63;;;;;;;;;;5006559;28;20030;-63
2023/04/30 13:39:45;;;;;;;13.32;12.63;;;;;;;;;;5021092;28;20045;-63
2023/04/30 13:42:10;;;;;;;13.85;13.13;;;;;;;;;;5018974;28;20397;-63
2023/04/30 13:44:35;;;;;;;13.25;12.55;;;;;;;;;;5023521;28;20079;-64
2023/04/30 13:47:01;;;;;;;13.25;12.55;;;;;;;;;;5017245;28;20040;-64
2023/04/30 13:49:26;;;;;;;13.18;12.48;;;;;;;;;;5008798;28;20030;-64
2023/04/30 13:51:51;;;;;;;12.98;12.30;;;;;;;;;;5012482;28;20038;-65
2023/04/30 13:54:17;;;;;;;13.23;12.52;;;;;;;;;;5003859;28;20026;-64
2023/04/30 13:56:42;;;;;;;15.63;14.70;;;;;;;;;;5003954;28;20101;-65
2023/04/30 13:59:08;;;;;;;17.38;16.27;;;;;;;;;;5010151;28;20032;-63
2023/04/30 14:01:33;;;;;;;13.55;12.85;;;;;;;;;;5007876;28;20036;-65
2023/04/30 14:03:59;;;;;;;13.52;12.82;;;;;;;;;;5012567;28;20037;-64
2023/04/30 14:06:24;;;;;;;14.38;13.57;;;;;;;;;;5009035;28;20124;-64
2023/04/30 14:08:49;;;;;;;13.25;12.55;;;;;;;;;;5015142;28;20021;-63
2023/04/30 14:11:15;;;;;;;12.70;12.10;;;;;;;;;;5007336;28;20022;-64
2023/04/30 14:13:40;;;;;;;13.38;12.68;;;;;;;;;;5014286;28;20025;-64
2023/04/30 14:16:06;;;;;;;12.90;12.30;;;;;;;;;;5012341;28;20460;-64